Language: 


Des rapports , des résumés tant et plus, au choix de chacun....


Données statistiques de la station
Quotidien Rapport Janvier 16, 2018 Unités:  les deux    Anglais   Métrique
« Précédent Jour
Suivant Jour »
Quotidien Hebdomadaire Mensuel Annuel Actuel
  Haut: Bas: Moyen:
Température: TemperatureC °F /  -17.8 °C 3.9 °F /  -15.6 °C 6.7 °F /  -14.1 °C
Pt de rosée: DewpointC °F /  -17.8 °C 0.0 °F /  -17.8 °C 3.6 °F /  -15.8 °C
Humidité: Humidity % 58 % 79 %
Vitesse du vent: WindSpeedKMH mph /  0 km/h - 16.7 mph /  26.9 km/h
Rafales: WindSpeedGustKMH mph /  0 km/h - -
Vent:- - WSW
Pression: PressurehPa in /  0 hPa 992.1 in /  33592.5 hPa -
Précipitation: 0.5 in /  12.7 mm    
Historical Graphs
 
 
Données statistiques pour Janvier 16, 2018
Heure Température Point de rosée Pression Vent Vitesse du vent Refales Humidité Pluie (taux horaire)
TemperatureC °F /  -17.8 °C DewpointC °F /  -17.8 °C PressurehPa in /  0 hPa Calm     Humidity % HourlyPrecipMM in /  0 mm
00:01 7.2 °F /  -13.8 °C 6.0 °F /  -14.4 °C 995.1 in /  33694.1 hPa West 13.7 mph /  22 km/h 25.9 mph /  41.7 km/h 90 % 0.0 in /  0 mm
00:07 7.1 °F /  -13.8 °C 6.0 °F /  -14.4 °C 995.1 in /  33694.1 hPa WSW 16.6 mph /  26.7 km/h 23.0 mph /  37 km/h 90 % 0.0 in /  0 mm
00:17 7.0 °F /  -13.9 °C 6.0 °F /  -14.4 °C 996.2 in /  33731.3 hPa West 12.6 mph /  20.3 km/h 20.6 mph /  33.2 km/h 90 % 0.0 in /  0 mm
00:25 6.9 °F /  -13.9 °C 6.0 °F /  -14.4 °C 995.1 in /  33694.1 hPa WSW 16.9 mph /  27.2 km/h 20.9 mph /  33.6 km/h 91 % 0.0 in /  0 mm
00:32 6.9 °F /  -13.9 °C 6.0 °F /  -14.4 °C 995.1 in /  33694.1 hPa WSW 9.7 mph /  15.6 km/h 20.6 mph /  33.2 km/h 91 % 0.0 in /  0 mm
00:42 6.9 °F /  -13.9 °C 6.0 °F /  -14.4 °C 994.1 in /  33660.2 hPa WSW 12.6 mph /  20.3 km/h 19.5 mph /  31.4 km/h 92 % 0.0 in /  0 mm
00:50 7.0 °F /  -13.9 °C 6.0 °F /  -14.4 °C 994.1 in /  33660.2 hPa West 20.9 mph /  33.6 km/h 25.3 mph /  40.7 km/h 91 % 0.0 in /  0 mm
01:03 7.3 °F /  -13.7 °C 5.0 °F /  -15 °C 995.1 in /  33694.1 hPa WSW 15.4 mph /  24.8 km/h 28.5 mph /  45.9 km/h 85 % 0.0 in /  0 mm
01:10 7.1 °F /  -13.8 °C 4.0 °F /  -15.6 °C 995.1 in /  33694.1 hPa WSW 16.3 mph /  26.2 km/h 25.3 mph /  40.7 km/h 82 % 0.0 in /  0 mm
01:22 7.0 °F /  -13.9 °C 4.0 °F /  -15.6 °C 995.1 in /  33694.1 hPa West 19.5 mph /  31.4 km/h 24.5 mph /  39.4 km/h 82 % 0.0 in /  0 mm
01:27 7.1 °F /  -13.8 °C 4.0 °F /  -15.6 °C 995.1 in /  33694.1 hPa WSW 12.2 mph /  19.6 km/h 24.5 mph /  39.4 km/h 83 % 0.0 in /  0 mm
01:34 7.3 °F /  -13.7 °C 5.0 °F /  -15 °C 995.1 in /  33694.1 hPa West 31.4 mph /  50.5 km/h 32.0 mph /  51.5 km/h 84 % 0.0 in /  0 mm
01:46 7.3 °F /  -13.7 °C 5.0 °F /  -15 °C 994.1 in /  33660.2 hPa WSW 17.2 mph /  27.7 km/h 37.0 mph /  59.5 km/h 86 % 0.0 in /  0 mm
02:03 7.1 °F /  -13.8 °C 6.0 °F /  -14.4 °C 995.1 in /  33694.1 hPa WSW 20.1 mph /  32.3 km/h 26.2 mph /  42.2 km/h 89 % 0.0 in /  0 mm
02:17 7.1 °F /  -13.8 °C 6.0 °F /  -14.4 °C 995.1 in /  33694.1 hPa WSW 20.1 mph /  32.3 km/h 26.7 mph /  43 km/h 91 % 0.0 in /  0 mm
02:34 6.8 °F /  -14 °C 5.0 °F /  -15 °C 994.1 in /  33660.2 hPa WSW 16.9 mph /  27.2 km/h 24.8 mph /  39.9 km/h 90 % 0.0 in /  0 mm
02:41 6.8 °F /  -14 °C 5.0 °F /  -15 °C 994.1 in /  33660.2 hPa WSW 19.8 mph /  31.9 km/h 27.4 mph /  44.1 km/h 90 % 0.0 in /  0 mm
02:49 6.7 °F /  -14.1 °C 6.0 °F /  -14.4 °C 994.1 in /  33660.2 hPa WSW 20.1 mph /  32.3 km/h 27.4 mph /  44.1 km/h 91 % 0.0 in /  0 mm
02:59 6.8 °F /  -14 °C 6.0 °F /  -14.4 °C 994.1 in /  33660.2 hPa WSW 17.2 mph /  27.7 km/h 23.8 mph /  38.3 km/h 92 % 0.0 in /  0 mm
03:06 6.8 °F /  -14 °C 6.0 °F /  -14.4 °C 994.1 in /  33660.2 hPa SW 16.6 mph /  26.7 km/h 24.8 mph /  39.9 km/h 92 % 0.0 in /  0 mm
03:14 6.6 °F /  -14.1 °C 6.0 °F /  -14.4 °C 994.1 in /  33660.2 hPa WSW 11.9 mph /  19.2 km/h 23.3 mph /  37.5 km/h 92 % 0.0 in /  0 mm
03:28 6.4 °F /  -14.2 °C 6.0 °F /  -14.4 °C 994.1 in /  33660.2 hPa WSW 20.1 mph /  32.3 km/h 20.6 mph /  33.2 km/h 93 % 0.0 in /  0 mm
03:39 6.4 °F /  -14.2 °C 6.0 °F /  -14.4 °C 994.1 in /  33660.2 hPa WSW 19.8 mph /  31.9 km/h 20.6 mph /  33.2 km/h 94 % 0.0 in /  0 mm
03:50 6.4 °F /  -14.2 °C 6.0 °F /  -14.4 °C 994.1 in /  33660.2 hPa WSW 19.1 mph /  30.7 km/h 22.4 mph /  36 km/h 95 % 0.0 in /  0 mm
03:58 6.5 °F /  -14.2 °C 6.0 °F /  -14.4 °C 993.1 in /  33626.4 hPa WSW 16.6 mph /  26.7 km/h 20.9 mph /  33.6 km/h 95 % 0.0 in /  0 mm
04:04 6.7 °F /  -14.1 °C 6.0 °F /  -14.4 °C 993.1 in /  33626.4 hPa West 12.6 mph /  20.3 km/h 23.3 mph /  37.5 km/h 96 % 0.0 in /  0 mm
04:11 6.8 °F /  -14 °C 6.0 °F /  -14.4 °C 994.1 in /  33660.2 hPa WSW 12.6 mph /  20.3 km/h 20.9 mph /  33.6 km/h 96 % 0.0 in /  0 mm
04:16 6.8 °F /  -14 °C 6.0 °F /  -14.4 °C 994.1 in /  33660.2 hPa WSW 14.0 mph /  22.5 km/h 20.9 mph /  33.6 km/h 96 % 0.0 in /  0 mm
04:22 6.8 °F /  -14 °C 6.0 °F /  -14.4 °C 994.1 in /  33660.2 hPa WSW 15.1 mph /  24.3 km/h 21.2 mph /  34.1 km/h 96 % 0.0 in /  0 mm
04:31 6.9 °F /  -13.9 °C 7.0 °F /  -13.9 °C 993.1 in /  33626.4 hPa WSW 11.9 mph /  19.2 km/h 20.9 mph /  33.6 km/h 96 % 0.0 in /  0 mm
04:48 6.9 °F /  -13.9 °C 7.0 °F /  -13.9 °C 993.1 in /  33626.4 hPa WSW 14.0 mph /  22.5 km/h 17.7 mph /  28.5 km/h 96 % 0.0 in /  0 mm
05:09 6.9 °F /  -13.9 °C 7.0 °F /  -13.9 °C 992.1 in /  33592.5 hPa WSW 12.2 mph /  19.6 km/h 14.0 mph /  22.5 km/h 96 % 0.3 in /  7.62 mm
05:22 6.9 °F /  -13.9 °C 7.0 °F /  -13.9 °C 992.1 in /  33592.5 hPa WSW 16.9 mph /  27.2 km/h 28.5 mph /  45.9 km/h 96 % 0.3 in /  7.62 mm
05:28 6.9 °F /  -13.9 °C 7.0 °F /  -13.9 °C 993.1 in /  33626.4 hPa West 24.5 mph /  39.4 km/h 28.5 mph /  45.9 km/h 96 % 0.3 in /  7.62 mm
05:50 6.9 °F /  -13.9 °C 7.0 °F /  -13.9 °C 993.1 in /  33626.4 hPa WSW 17.2 mph /  27.7 km/h 24.8 mph /  39.9 km/h 96 % 0.3 in /  7.62 mm
06:08 6.9 °F /  -13.9 °C 7.0 °F /  -13.9 °C 993.1 in /  33626.4 hPa West 17.2 mph /  27.7 km/h 21.6 mph /  34.8 km/h 96 % 0.0 in /  0 mm
06:36 6.9 °F /  -13.9 °C 7.0 °F /  -13.9 °C 993.1 in /  33626.4 hPa WSW 16.9 mph /  27.2 km/h 27.0 mph /  43.5 km/h 96 % 0.0 in /  0 mm
06:42 6.9 °F /  -13.9 °C 7.0 °F /  -13.9 °C 993.1 in /  33626.4 hPa West 28.0 mph /  45.1 km/h 28.0 mph /  45.1 km/h 96 % 0.0 in /  0 mm
06:49 6.9 °F /  -13.9 °C 7.0 °F /  -13.9 °C 993.1 in /  33626.4 hPa West 13.0 mph /  20.9 km/h 28.0 mph /  45.1 km/h 96 % 0.0 in /  0 mm
07:10 6.9 °F /  -13.9 °C 7.0 °F /  -13.9 °C 993.1 in /  33626.4 hPa WSW 21.6 mph /  34.8 km/h 28.5 mph /  45.9 km/h 96 % 0.0 in /  0 mm
07:19 7.7 °F /  -13.5 °C 6.0 °F /  -14.4 °C 993.1 in /  33626.4 hPa WSW 19.8 mph /  31.9 km/h 28.0 mph /  45.1 km/h 86 % 0.0 in /  0 mm
07:30 7.6 °F /  -13.6 °C 6.0 °F /  -14.4 °C 993.1 in /  33626.4 hPa WSW 16.9 mph /  27.2 km/h 27.4 mph /  44.1 km/h 85 % 0.0 in /  0 mm
07:44 7.4 °F /  -13.7 °C 5.0 °F /  -15 °C 993.1 in /  33626.4 hPa West 17.7 mph /  28.5 km/h 30.9 mph /  49.7 km/h 84 % 0.0 in /  0 mm
08:01 7.4 °F /  -13.7 °C 5.0 °F /  -15 °C 993.1 in /  33626.4 hPa West 15.4 mph /  24.8 km/h 25.6 mph /  41.2 km/h 83 % 0.0 in /  0 mm
08:08 7.2 °F /  -13.8 °C 5.0 °F /  -15 °C 993.1 in /  33626.4 hPa WSW 10.5 mph /  16.9 km/h 22.7 mph /  36.5 km/h 83 % 0.0 in /  0 mm
08:13 7.1 °F /  -13.8 °C 4.0 °F /  -15.6 °C 993.1 in /  33626.4 hPa West 23.3 mph /  37.5 km/h 23.8 mph /  38.3 km/h 83 % 0.0 in /  0 mm
08:20 7.1 °F /  -13.8 °C 5.0 °F /  -15 °C 993.1 in /  33626.4 hPa West 17.7 mph /  28.5 km/h 26.2 mph /  42.2 km/h 84 % 0.0 in /  0 mm
08:29 7.2 °F /  -13.8 °C 5.0 °F /  -15 °C 994.1 in /  33660.2 hPa West 21.2 mph /  34.1 km/h 27.4 mph /  44.1 km/h 83 % 0.0 in /  0 mm
08:35 7.1 °F /  -13.8 °C 4.0 °F /  -15.6 °C 994.1 in /  33660.2 hPa WSW 13.7 mph /  22 km/h 24.8 mph /  39.9 km/h 83 % 0.0 in /  0 mm
08:45 7.0 °F /  -13.9 °C 4.0 °F /  -15.6 °C 995.1 in /  33694.1 hPa West 17.7 mph /  28.5 km/h 25.3 mph /  40.7 km/h 83 % 0.0 in /  0 mm
08:59 6.7 °F /  -14.1 °C 4.0 °F /  -15.6 °C 994.1 in /  33660.2 hPa WSW 16.6 mph /  26.7 km/h 20.9 mph /  33.6 km/h 84 % 0.0 in /  0 mm
09:08 6.7 °F /  -14.1 °C 4.0 °F /  -15.6 °C 994.1 in /  33660.2 hPa West 9.0 mph /  14.5 km/h 20.6 mph /  33.2 km/h 84 % 0.0 in /  0 mm
09:13 6.6 °F /  -14.1 °C 4.0 °F /  -15.6 °C 995.1 in /  33694.1 hPa West 14.0 mph /  22.5 km/h 24.8 mph /  39.9 km/h 84 % 0.0 in /  0 mm
09:22 6.8 °F /  -14 °C 5.0 °F /  -15 °C 995.1 in /  33694.1 hPa WSW 17.2 mph /  27.7 km/h 24.8 mph /  39.9 km/h 85 % 0.0 in /  0 mm
09:28 6.8 °F /  -14 °C 5.0 °F /  -15 °C 995.1 in /  33694.1 hPa West 13.0 mph /  20.9 km/h 24.8 mph /  39.9 km/h 85 % 0.0 in /  0 mm
09:34 6.7 °F /  -14.1 °C 5.0 °F /  -15 °C 995.1 in /  33694.1 hPa WSW 19.5 mph /  31.4 km/h 23.0 mph /  37 km/h 85 % 0.0 in /  0 mm
09:48 7.0 °F /  -13.9 °C 5.0 °F /  -15 °C 995.1 in /  33694.1 hPa West 20.9 mph /  33.6 km/h 27.7 mph /  44.6 km/h 84 % 0.0 in /  0 mm
09:57 7.2 °F /  -13.8 °C 4.0 °F /  -15.6 °C 995.1 in /  33694.1 hPa WSW 20.9 mph /  33.6 km/h 23.8 mph /  38.3 km/h 80 % 0.0 in /  0 mm
10:09 7.1 °F /  -13.8 °C 3.0 °F /  -16.1 °C 995.1 in /  33694.1 hPa WSW 27.7 mph /  44.6 km/h 28.5 mph /  45.9 km/h 78 % 0.0 in /  0 mm
10:14 7.1 °F /  -13.8 °C 3.0 °F /  -16.1 °C 995.1 in /  33694.1 hPa West 22.7 mph /  36.5 km/h 41.4 mph /  66.6 km/h 76 % 0.0 in /  0 mm
10:26 7.1 °F /  -13.8 °C 3.0 °F /  -16.1 °C 996.2 in /  33731.3 hPa WSW 17.2 mph /  27.7 km/h 32.0 mph /  51.5 km/h 76 % 0.0 in /  0 mm
10:31 7.0 °F /  -13.9 °C 3.0 °F /  -16.1 °C 996.2 in /  33731.3 hPa West 16.3 mph /  26.2 km/h 28.0 mph /  45.1 km/h 76 % 0.0 in /  0 mm
10:36 7.0 °F /  -13.9 °C 3.0 °F /  -16.1 °C 996.2 in /  33731.3 hPa WNW 20.9 mph /  33.6 km/h 25.6 mph /  41.2 km/h 76 % 0.0 in /  0 mm
10:43 7.1 °F /  -13.8 °C 3.0 °F /  -16.1 °C 995.1 in /  33694.1 hPa West 19.1 mph /  30.7 km/h 28.5 mph /  45.9 km/h 75 % 0.0 in /  0 mm
10:51 7.2 °F /  -13.8 °C 3.0 °F /  -16.1 °C 995.1 in /  33694.1 hPa WSW 10.1 mph /  16.3 km/h 29.1 mph /  46.8 km/h 75 % 0.0 in /  0 mm
10:59 7.3 °F /  -13.7 °C 3.0 °F /  -16.1 °C 996.2 in /  33731.3 hPa West 15.8 mph /  25.4 km/h 29.9 mph /  48.1 km/h 75 % 0.0 in /  0 mm
11:12 7.4 °F /  -13.7 °C 3.0 °F /  -16.1 °C 996.2 in /  33731.3 hPa SSW 16.3 mph /  26.2 km/h 27.4 mph /  44.1 km/h 73 % 0.0 in /  0 mm
11:20 7.4 °F /  -13.7 °C 3.0 °F /  -16.1 °C 996.2 in /  33731.3 hPa WSW 16.6 mph /  26.7 km/h 32.0 mph /  51.5 km/h 72 % 0.0 in /  0 mm
11:29 7.4 °F /  -13.7 °C 3.0 °F /  -16.1 °C 996.8 in /  33751.6 hPa West 17.2 mph /  27.7 km/h 30.2 mph /  48.6 km/h 72 % 0.0 in /  0 mm
11:39 7.4 °F /  -13.7 °C 3.0 °F /  -16.1 °C 996.8 in /  33751.6 hPa West 12.2 mph /  19.6 km/h 26.7 mph /  43 km/h 72 % 0.0 in /  0 mm
11:52 7.4 °F /  -13.7 °C 3.0 °F /  -16.1 °C 996.8 in /  33751.6 hPa West 6.1 mph /  9.8 km/h 17.2 mph /  27.7 km/h 72 % 0.0 in /  0 mm
11:57 7.4 °F /  -13.7 °C 3.0 °F /  -16.1 °C 996.8 in /  33751.6 hPa West 11.9 mph /  19.2 km/h 20.1 mph /  32.3 km/h 72 % 0.0 in /  0 mm
12:07 8.8 °F /  -12.9 °C 4.0 °F /  -15.6 °C 996.8 in /  33751.6 hPa WSW 11.6 mph /  18.7 km/h 17.2 mph /  27.7 km/h 69 % 0.0 in /  0 mm
12:14 8.8 °F /  -12.9 °C 4.0 °F /  -15.6 °C 996.8 in /  33751.6 hPa WSW 11.6 mph /  18.7 km/h 17.2 mph /  27.7 km/h 69 % 0.0 in /  0 mm
12:31 8.5 °F /  -13.1 °C 1.0 °F /  -17.2 °C 996.8 in /  33751.6 hPa WSW 6.9 mph /  11.1 km/h 28.5 mph /  45.9 km/h 58 % 0.0 in /  0 mm
12:40 8.5 °F /  -13.1 °C 1.0 °F /  -17.2 °C 996.8 in /  33751.6 hPa West 27.7 mph /  44.6 km/h 27.7 mph /  44.6 km/h 58 % 0.0 in /  0 mm
12:47 8.5 °F /  -13.1 °C 1.0 °F /  -17.2 °C 996.8 in /  33751.6 hPa West 44.6 mph /  71.8 km/h 44.6 mph /  71.8 km/h 58 % 0.0 in /  0 mm
13:04 8.5 °F /  -13.1 °C 1.0 °F /  -17.2 °C 996.8 in /  33751.6 hPa WSW 9.7 mph /  15.6 km/h 43.1 mph /  69.4 km/h 58 % 0.0 in /  0 mm
13:15 8.5 °F /  -13.1 °C 1.0 °F /  -17.2 °C 996.2 in /  33731.3 hPa West 18.0 mph /  29 km/h 36.0 mph /  57.9 km/h 58 % 0.0 in /  0 mm
13:21 8.5 °F /  -13.1 °C 1.0 °F /  -17.2 °C 996.2 in /  33731.3 hPa WNW 21.6 mph /  34.8 km/h 30.6 mph /  49.2 km/h 58 % 0.0 in /  0 mm
13:31 7.9 °F /  -13.4 °C 2.0 °F /  -16.7 °C 996.8 in /  33751.6 hPa West 27.7 mph /  44.6 km/h 27.7 mph /  44.6 km/h 66 % 0.0 in /  0 mm
13:47 7.9 °F /  -13.4 °C 2.0 °F /  -16.7 °C 996.2 in /  33731.3 hPa West 20.6 mph /  33.2 km/h 33.8 mph /  54.4 km/h 66 % 0.0 in /  0 mm
13:54 7.9 °F /  -13.4 °C 2.0 °F /  -16.7 °C 996.2 in /  33731.3 hPa WSW 25.3 mph /  40.7 km/h 39.3 mph /  63.2 km/h 66 % 0.0 in /  0 mm
14:02 8.3 °F /  -13.2 °C 3.0 °F /  -16.1 °C 996.2 in /  33731.3 hPa West 19.8 mph /  31.9 km/h 40.4 mph /  65 km/h 65 % 0.0 in /  0 mm
14:10 8.1 °F /  -13.3 °C 3.0 °F /  -16.1 °C 996.2 in /  33731.3 hPa WSW 12.6 mph /  20.3 km/h 36.0 mph /  57.9 km/h 67 % 0.0 in /  0 mm
14:22 8.4 °F /  -13.1 °C 3.0 °F /  -16.1 °C 996.2 in /  33731.3 hPa WSW 20.9 mph /  33.6 km/h 42.8 mph /  68.9 km/h 65 % 0.0 in /  0 mm
14:32 8.5 °F /  -13.1 °C 3.0 °F /  -16.1 °C 995.1 in /  33694.1 hPa West 17.7 mph /  28.5 km/h 38.5 mph /  62 km/h 67 % 0.0 in /  0 mm
14:39 8.5 °F /  -13.1 °C 3.0 °F /  -16.1 °C 995.1 in /  33694.1 hPa West 25.3 mph /  40.7 km/h 33.5 mph /  53.9 km/h 65 % 0.0 in /  0 mm
14:49 8.5 °F /  -13.1 °C 3.0 °F /  -16.1 °C 995.1 in /  33694.1 hPa West 32.0 mph /  51.5 km/h 40.4 mph /  65 km/h 67 % 0.0 in /  0 mm
15:09 8.5 °F /  -13.1 °C 2.0 °F /  -16.7 °C 995.1 in /  33694.1 hPa West 21.6 mph /  34.8 km/h 41.4 mph /  66.6 km/h 63 % 0.0 in /  0 mm
15:21 8.5 °F /  -13.1 °C 3.0 °F /  -16.1 °C 995.1 in /  33694.1 hPa West 13.0 mph /  20.9 km/h 28.5 mph /  45.9 km/h 65 % 0.0 in /  0 mm
15:27 8.5 °F /  -13.1 °C 3.0 °F /  -16.1 °C 995.1 in /  33694.1 hPa West 33.1 mph /  53.3 km/h 33.1 mph /  53.3 km/h 64 % 0.0 in /  0 mm
15:35 8.4 °F /  -13.1 °C 2.0 °F /  -16.7 °C 995.1 in /  33694.1 hPa West 22.7 mph /  36.5 km/h 36.7 mph /  59.1 km/h 63 % 0.0 in /  0 mm
15:43 8.1 °F /  -13.3 °C 2.0 °F /  -16.7 °C 995.1 in /  33694.1 hPa West 21.2 mph /  34.1 km/h 36.7 mph /  59.1 km/h 64 % 0.0 in /  0 mm
16:09 7.5 °F /  -13.6 °C 0.0 °F /  -17.8 °C 996.2 in /  33731.3 hPa West 20.9 mph /  33.6 km/h 45.7 mph /  73.5 km/h 59 % 0.0 in /  0 mm
16:14 7.4 °F /  -13.7 °C 0.0 °F /  -17.8 °C 996.2 in /  33731.3 hPa West 11.6 mph /  18.7 km/h 28.0 mph /  45.1 km/h 61 % 0.0 in /  0 mm
16:27 7.1 °F /  -13.8 °C 1.0 °F /  -17.2 °C 996.2 in /  33731.3 hPa WSW 17.7 mph /  28.5 km/h 24.8 mph /  39.9 km/h 64 % 0.0 in /  0 mm
16:36 6.7 °F /  -14.1 °C 1.0 °F /  -17.2 °C 996.2 in /  33731.3 hPa WSW 14.0 mph /  22.5 km/h 25.9 mph /  41.7 km/h 67 % 0.0 in /  0 mm
16:56 6.3 °F /  -14.3 °C 2.0 °F /  -16.7 °C 995.1 in /  33694.1 hPa West 16.9 mph /  27.2 km/h 23.0 mph /  37 km/h 72 % 0.0 in /  0 mm
17:12 6.3 °F /  -14.3 °C 2.0 °F /  -16.7 °C 996.2 in /  33731.3 hPa West 20.1 mph /  32.3 km/h 23.8 mph /  38.3 km/h 73 % 0.0 in /  0 mm
17:19 6.3 °F /  -14.3 °C 2.0 °F /  -16.7 °C 996.2 in /  33731.3 hPa WNW 9.3 mph /  15 km/h 27.7 mph /  44.6 km/h 72 % 0.0 in /  0 mm
17:33 6.3 °F /  -14.3 °C 1.0 °F /  -17.2 °C 996.2 in /  33731.3 hPa WSW 20.6 mph /  33.2 km/h 23.8 mph /  38.3 km/h 70 % 0.0 in /  0 mm
17:47 6.1 °F /  -14.4 °C 1.0 °F /  -17.2 °C 995.1 in /  33694.1 hPa West 17.2 mph /  27.7 km/h 25.3 mph /  40.7 km/h 70 % 0.0 in /  0 mm
17:54 6.1 °F /  -14.4 °C 1.0 °F /  -17.2 °C 995.1 in /  33694.1 hPa West 15.4 mph /  24.8 km/h 25.3 mph /  40.7 km/h 70 % 0.0 in /  0 mm
18:10 6.0 °F /  -14.4 °C 1.0 °F /  -17.2 °C 995.1 in /  33694.1 hPa WSW 20.1 mph /  32.3 km/h 24.8 mph /  39.9 km/h 71 % 0.0 in /  0 mm
18:16 6.0 °F /  -14.4 °C 1.0 °F /  -17.2 °C 995.1 in /  33694.1 hPa WSW 16.3 mph /  26.2 km/h 28.0 mph /  45.1 km/h 71 % 0.0 in /  0 mm
18:23 5.9 °F /  -14.5 °C 1.0 °F /  -17.2 °C 995.1 in /  33694.1 hPa West 16.6 mph /  26.7 km/h 31.7 mph /  51 km/h 71 % 0.0 in /  0 mm
18:38 5.9 °F /  -14.5 °C 1.0 °F /  -17.2 °C 994.1 in /  33660.2 hPa WSW 16.6 mph /  26.7 km/h 28.0 mph /  45.1 km/h 70 % 0.0 in /  0 mm
18:45 5.9 °F /  -14.5 °C 1.0 °F /  -17.2 °C 994.1 in /  33660.2 hPa West 16.3 mph /  26.2 km/h 27.4 mph /  44.1 km/h 70 % 0.0 in /  0 mm
18:51 5.9 °F /  -14.5 °C 1.0 °F /  -17.2 °C 994.1 in /  33660.2 hPa WSW 17.7 mph /  28.5 km/h 21.2 mph /  34.1 km/h 70 % 0.0 in /  0 mm
18:58 5.8 °F /  -14.6 °C 1.0 °F /  -17.2 °C 995.1 in /  33694.1 hPa West 12.6 mph /  20.3 km/h 21.2 mph /  34.1 km/h 71 % 0.0 in /  0 mm
19:03 5.8 °F /  -14.6 °C 1.0 °F /  -17.2 °C 995.1 in /  33694.1 hPa West 13.7 mph /  22 km/h 19.5 mph /  31.4 km/h 71 % 0.0 in /  0 mm
19:09 5.9 °F /  -14.5 °C 1.0 °F /  -17.2 °C 995.1 in /  33694.1 hPa WSW 16.6 mph /  26.7 km/h 21.6 mph /  34.8 km/h 71 % 0.0 in /  0 mm
19:22 5.8 °F /  -14.6 °C 2.0 °F /  -16.7 °C 995.1 in /  33694.1 hPa WSW 15.4 mph /  24.8 km/h 17.7 mph /  28.5 km/h 72 % 0.0 in /  0 mm
19:28 5.8 °F /  -14.6 °C 2.0 °F /  -16.7 °C 995.1 in /  33694.1 hPa West 14.0 mph /  22.5 km/h 20.9 mph /  33.6 km/h 73 % 0.0 in /  0 mm
19:34 5.8 °F /  -14.6 °C 2.0 °F /  -16.7 °C 995.1 in /  33694.1 hPa WSW 15.8 mph /  25.4 km/h 20.9 mph /  33.6 km/h 73 % 0.0 in /  0 mm
19:40 5.8 °F /  -14.6 °C 2.0 °F /  -16.7 °C 995.1 in /  33694.1 hPa West 13.0 mph /  20.9 km/h 20.6 mph /  33.2 km/h 73 % 0.0 in /  0 mm
19:45 5.7 °F /  -14.6 °C 2.0 °F /  -16.7 °C 995.1 in /  33694.1 hPa WSW 9.7 mph /  15.6 km/h 18.0 mph /  29 km/h 74 % 0.0 in /  0 mm
19:50 5.6 °F /  -14.7 °C 2.0 °F /  -16.7 °C 995.1 in /  33694.1 hPa WSW 9.0 mph /  14.5 km/h 14.0 mph /  22.5 km/h 74 % 0.0 in /  0 mm
19:57 5.5 °F /  -14.7 °C 2.0 °F /  -16.7 °C 995.1 in /  33694.1 hPa WSW 9.7 mph /  15.6 km/h 12.6 mph /  20.3 km/h 75 % 0.0 in /  0 mm
20:16 5.7 °F /  -14.6 °C 2.0 °F /  -16.7 °C 995.1 in /  33694.1 hPa WSW 19.8 mph /  31.9 km/h 26.2 mph /  42.2 km/h 77 % 0.0 in /  0 mm
20:28 5.6 °F /  -14.7 °C 2.0 °F /  -16.7 °C 995.1 in /  33694.1 hPa WSW 11.6 mph /  18.7 km/h 18.0 mph /  29 km/h 78 % 0.0 in /  0 mm
20:34 5.5 °F /  -14.7 °C 2.0 °F /  -16.7 °C 995.1 in /  33694.1 hPa WSW 21.9 mph /  35.2 km/h 21.9 mph /  35.2 km/h 78 % 0.0 in /  0 mm
20:41 5.4 °F /  -14.8 °C 2.0 °F /  -16.7 °C 994.1 in /  33660.2 hPa WSW 16.9 mph /  27.2 km/h 21.9 mph /  35.2 km/h 78 % 0.0 in /  0 mm
20:47 5.4 °F /  -14.8 °C 2.0 °F /  -16.7 °C 994.1 in /  33660.2 hPa WSW 16.9 mph /  27.2 km/h 20.9 mph /  33.6 km/h 78 % 0.0 in /  0 mm
20:52 5.4 °F /  -14.8 °C 2.0 °F /  -16.7 °C 994.1 in /  33660.2 hPa WSW 17.2 mph /  27.7 km/h 24.5 mph /  39.4 km/h 78 % 0.0 in /  0 mm
21:04 5.5 °F /  -14.7 °C 3.0 °F /  -16.1 °C 995.1 in /  33694.1 hPa WSW 13.7 mph /  22 km/h 25.9 mph /  41.7 km/h 79 % 0.0 in /  0 mm
21:12 5.5 °F /  -14.7 °C 3.0 °F /  -16.1 °C 995.1 in /  33694.1 hPa WSW 12.6 mph /  20.3 km/h 20.9 mph /  33.6 km/h 80 % 0.0 in /  0 mm
21:24 5.5 °F /  -14.7 °C 3.0 °F /  -16.1 °C 995.1 in /  33694.1 hPa West 27.0 mph /  43.5 km/h 34.3 mph /  55.2 km/h 84 % 0.0 in /  0 mm
21:37 5.5 °F /  -14.7 °C 3.0 °F /  -16.1 °C 994.1 in /  33660.2 hPa WSW 12.2 mph /  19.6 km/h 38.1 mph /  61.3 km/h 84 % 0.0 in /  0 mm
21:45 5.5 °F /  -14.7 °C 3.0 °F /  -16.1 °C 995.1 in /  33694.1 hPa WSW 14.0 mph /  22.5 km/h 24.5 mph /  39.4 km/h 84 % 0.0 in /  0 mm
21:56 5.5 °F /  -14.7 °C 3.0 °F /  -16.1 °C 995.1 in /  33694.1 hPa WSW 14.0 mph /  22.5 km/h 21.2 mph /  34.1 km/h 84 % 0.3 in /  7.62 mm
22:01 5.5 °F /  -14.7 °C 3.0 °F /  -16.1 °C 995.1 in /  33694.1 hPa West 9.7 mph /  15.6 km/h 20.9 mph /  33.6 km/h 84 % 0.3 in /  7.62 mm
22:07 5.5 °F /  -14.7 °C 3.0 °F /  -16.1 °C 995.1 in /  33694.1 hPa Calm   12.6 mph /  20.3 km/h 84 % 0.3 in /  7.62 mm
22:21 5.5 °F /  -14.7 °C 3.0 °F /  -16.1 °C 994.1 in /  33660.2 hPa SW 9.0 mph /  14.5 km/h 12.2 mph /  19.6 km/h 84 % 0.3 in /  7.62 mm
22:35 3.9 °F /  -15.6 °C 3.0 °F /  -16.1 °C 994.1 in /  33660.2 hPa SSW 10.5 mph /  16.9 km/h 12.6 mph /  20.3 km/h 90 % 0.3 in /  7.62 mm
22:48 3.9 °F /  -15.6 °C 3.0 °F /  -16.1 °C 994.1 in /  33660.2 hPa SW 13.7 mph /  22 km/h 16.9 mph /  27.2 km/h 90 % 0.3 in /  7.62 mm
23:03 3.9 °F /  -15.6 °C 3.0 °F /  -16.1 °C 994.1 in /  33660.2 hPa SW 8.7 mph /  14 km/h 14.0 mph /  22.5 km/h 90 % 0.0 in /  0 mm
23:10 3.9 °F /  -15.6 °C 3.0 °F /  -16.1 °C 994.1 in /  33660.2 hPa WSW 9.7 mph /  15.6 km/h 16.6 mph /  26.7 km/h 90 % 0.0 in /  0 mm
23:15 3.9 °F /  -15.6 °C 3.0 °F /  -16.1 °C 994.1 in /  33660.2 hPa WSW 11.1 mph /  17.9 km/h 19.5 mph /  31.4 km/h 90 % 0.0 in /  0 mm
23:27 3.9 °F /  -15.6 °C 3.0 °F /  -16.1 °C 994.1 in /  33660.2 hPa West 16.9 mph /  27.2 km/h 25.6 mph /  41.2 km/h 90 % 0.0 in /  0 mm
23:32 4.2 °F /  -15.4 °C 4.0 °F /  -15.6 °C 994.1 in /  33660.2 hPa West 18.0 mph /  29 km/h 25.6 mph /  41.2 km/h 96 % 0.0 in /  0 mm
23:41 4.2 °F /  -15.4 °C 3.0 °F /  -16.1 °C 994.1 in /  33660.2 hPa West 14.3 mph /  23 km/h 21.9 mph /  35.2 km/h 94 % 0.0 in /  0 mm
23:55 4.2 °F /  -15.4 °C 3.0 °F /  -16.1 °C 994.1 in /  33660.2 hPa West 20.6 mph /  33.2 km/h 24.8 mph /  39.9 km/h 94 % 0.0 in /  0 mm
Le Gheer Warneton
Courtoisie de Weather Underground - 1.5 mb

Mise a jour : 24/02/2018 22:23:11
Généré par Cumulus 1.9.4 (1099)